sensor_id;sensor_type;location;lat;lon;timestamp;temperature;humidity
47791;DHT22;33547;49.044;1.156;2023-02-01T01:52:30;7.70;99.90
47791;DHT22;33547;49.044;1.156;2023-02-01T04:11:24;7.60;99.90
47791;DHT22;33547;49.044;1.156;2023-02-01T05:16:42;7.30;99.90
47791;DHT22;33547;49.044;1.156;2023-02-01T05:43:48;7.40;99.90
47791;DHT22;33547;49.044;1.156;2023-02-01T06:33:20;7.40;99.90
47791;DHT22;33547;49.044;1.156;2023-02-01T06:57:05;7.10;99.90
47791;DHT22;33547;49.044;1.156;2023-02-01T08:28:00;9.50;99.90
47791;DHT22;33547;49.044;1.156;2023-02-01T08:50:48;11.40;99.90
47791;DHT22;33547;49.044;1.156;2023-02-01T08:53:14;10.90;99.90
47791;DHT22;33547;49.044;1.156;2023-02-01T08:55:40;10.30;99.90
47791;DHT22;33547;49.044;1.156;2023-02-01T08:58:05;9.50;99.90
47791;DHT22;33547;49.044;1.156;2023-02-01T09:00:31;9.30;99.90
47791;DHT22;33547;49.044;1.156;2023-02-01T09:02:57;9.00;99.90
47791;DHT22;33547;49.044;1.156;2023-02-01T09:05:22;8.90;99.90
47791;DHT22;33547;49.044;1.156;2023-02-01T09:07:52;8.70;99.90
47791;DHT22;33547;49.044;1.156;2023-02-01T09:10:18;8.60;99.90
47791;DHT22;33547;49.044;1.156;2023-02-01T09:12:43;8.50;99.90
47791;DHT22;33547;49.044;1.156;2023-02-01T09:15:09;8.40;99.90
47791;DHT22;33547;49.044;1.156;2023-02-01T09:17:35;8.30;99.90
47791;DHT22;33547;49.044;1.156;2023-02-01T09:20:02;8.30;99.90
47791;DHT22;33547;49.044;1.156;2023-02-01T09:22:28;8.30;99.90
47791;DHT22;33547;49.044;1.156;2023-02-01T09:24:53;8.20;99.90
47791;DHT22;33547;49.044;1.156;2023-02-01T09:27:19;8.20;99.90
47791;DHT22;33547;49.044;1.156;2023-02-01T09:29:45;8.30;99.90
47791;DHT22;33547;49.044;1.156;2023-02-01T09:32:15;8.40;99.90
47791;DHT22;33547;49.044;1.156;2023-02-01T09:34:40;8.30;99.90
47791;DHT22;33547;49.044;1.156;2023-02-01T09:37:06;8.50;99.90
47791;DHT22;33547;49.044;1.156;2023-02-01T09:39:32;8.50;99.90
47791;DHT22;33547;49.044;1.156;2023-02-01T09:47:22;8.80;99.90
47791;DHT22;33547;49.044;1.156;2023-02-01T09:50:11;8.90;99.90
47791;DHT22;33547;49.044;1.156;2023-02-01T09:52:44;9.20;99.90
47791;DHT22;33547;49.044;1.156;2023-02-01T09:55:18;9.30;99.90
47791;DHT22;33547;49.044;1.156;2023-02-01T09:58:01;9.50;99.90
47791;DHT22;33547;49.044;1.156;2023-02-01T10:00:35;9.80;99.90
47791;DHT22;33547;49.044;1.156;2023-02-01T10:03:02;9.80;99.90
47791;DHT22;33547;49.044;1.156;2023-02-01T10:10:40;10.20;99.90
47791;DHT22;33547;49.044;1.156;2023-02-01T10:13:44;10.30;99.90
47791;DHT22;33547;49.044;1.156;2023-02-01T10:16:24;10.50;99.90
47791;DHT22;33547;49.044;1.156;2023-02-01T10:21:53;12.00;99.90
47791;DHT22;33547;49.044;1.156;2023-02-01T10:24:40;13.40;99.90
47791;DHT22;33547;49.044;1.156;2023-02-01T10:29:38;14.20;97.80
47791;DHT22;33547;49.044;1.156;2023-02-01T10:32:19;14.70;97.70
47791;DHT22;33547;49.044;1.156;2023-02-01T10:34:51;16.90;95.50
47791;DHT22;33547;49.044;1.156;2023-02-01T10:37:28;17.60;92.60
47791;DHT22;33547;49.044;1.156;2023-02-01T10:39:56;18.10;84.70
47791;DHT22;33547;49.044;1.156;2023-02-01T10:42:26;18.30;82.20
47791;DHT22;33547;49.044;1.156;2023-02-01T10:44:53;19.00;78.80
47791;DHT22;33547;49.044;1.156;2023-02-01T10:47:19;18.40;79.40
47791;DHT22;33547;49.044;1.156;2023-02-01T10:49:55;19.50;76.70
47791;DHT22;33547;49.044;1.156;2023-02-01T10:52:38;19.30;71.80
47791;DHT22;33547;49.044;1.156;2023-02-01T10:58:30;16.30;74.50
47791;DHT22;33547;49.044;1.156;2023-02-01T11:01:08;14.80;82.10
47791;DHT22;33547;49.044;1.156;2023-02-01T11:03:40;13.70;86.50
47791;DHT22;33547;49.044;1.156;2023-02-01T11:06:33;13.70;88.90
47791;DHT22;33547;49.044;1.156;2023-02-01T11:19:34;12.10;92.10
47791;DHT22;33547;49.044;1.156;2023-02-01T11:22:00;12.10;93.50
47791;DHT22;33547;49.044;1.156;2023-02-01T11:24:32;12.10;93.80
47791;DHT22;33547;49.044;1.156;2023-02-01T11:27:02;12.20;92.90
47791;DHT22;33547;49.044;1.156;2023-02-01T11:29:36;12.10;93.30
47791;DHT22;33547;49.044;1.156;2023-02-01T11:32:03;12.00;92.90
47791;DHT22;33547;49.044;1.156;2023-02-01T11:34:44;11.90;92.30
47791;DHT22;33547;49.044;1.156;2023-02-01T11:37:27;13.10;92.80
47791;DHT22;33547;49.044;1.156;2023-02-01T11:40:03;15.40;87.20
47791;DHT22;33547;49.044;1.156;2023-02-01T11:42:29;16.40;84.30
47791;DHT22;33547;49.044;1.156;2023-02-01T11:45:19;15.60;80.00
47791;DHT22;33547;49.044;1.156;2023-02-01T11:47:45;16.40;79.40
47791;DHT22;33547;49.044;1.156;2023-02-01T12:00:55;13.80;86.40
47791;DHT22;33547;49.044;1.156;2023-02-01T12:06:55;12.50;89.80
47791;DHT22;33547;49.044;1.156;2023-02-01T12:36:40;12.90;92.20
47791;DHT22;33547;49.044;1.156;2023-02-01T12:44:35;12.80;90.60
47791;DHT22;33547;49.044;1.156;2023-02-01T12:47:12;13.10;90.10
47791;DHT22;33547;49.044;1.156;2023-02-01T12:52:28;13.20;90.20
47791;DHT22;33547;49.044;1.156;2023-02-01T12:58:15;13.40;87.40
47791;DHT22;33547;49.044;1.156;2023-02-01T13:01:11;13.20;86.80
47791;DHT22;33547;49.044;1.156;2023-02-01T13:03:54;13.00;86.90
47791;DHT22;33547;49.044;1.156;2023-02-01T13:06:29;13.00;88.80
47791;DHT22;33547;49.044;1.156;2023-02-01T13:11:34;12.30;89.80
47791;DHT22;33547;49.044;1.156;2023-02-01T13:16:47;12.10;90.10
47791;DHT22;33547;49.044;1.156;2023-02-01T13:22:38;11.80;90.30
47791;DHT22;33547;49.044;1.156;2023-02-01T13:27:53;11.60;91.50
47791;DHT22;33547;49.044;1.156;2023-02-01T13:30:38;11.50;91.10
47791;DHT22;33547;49.044;1.156;2023-02-01T13:33:38;11.40;91.10
47791;DHT22;33547;49.044;1.156;2023-02-01T13:36:38;11.60;91.40
47791;DHT22;33547;49.044;1.156;2023-02-01T13:41:55;11.70;91.50
47791;DHT22;33547;49.044;1.156;2023-02-01T13:45:42;11.70;91.00
47791;DHT22;33547;49.044;1.156;2023-02-01T13:47:42;11.50;89.90
47791;DHT22;33547;49.044;1.156;2023-02-01T13:53:00;11.60;90.70
47791;DHT22;33547;49.044;1.156;2023-02-01T13:55:34;11.40;90.50
47791;DHT22;33547;49.044;1.156;2023-02-01T13:58:39;11.50;91.40
47791;DHT22;33547;49.044;1.156;2023-02-01T14:01:35;11.50;91.70
47791;DHT22;33547;49.044;1.156;2023-02-01T14:04:06;11.40;91.10
47791;DHT22;33547;49.044;1.156;2023-02-01T14:11:51;11.10;91.60
47791;DHT22;33547;49.044;1.156;2023-02-01T14:17:30;11.10;92.60
47791;DHT22;33547;49.044;1.156;2023-02-01T14:19:32;11.20;92.50
47791;DHT22;33547;49.044;1.156;2023-02-01T14:21:58;11.00;92.20
47791;DHT22;33547;49.044;1.156;2023-02-01T14:24:29;10.80;92.20
47791;DHT22;33547;49.044;1.156;2023-02-01T14:26:57;11.00;92.10
47791;DHT22;33547;49.044;1.156;2023-02-01T14:34:51;11.00;93.20
47791;DHT22;33547;49.044;1.156;2023-02-01T14:47:49;11.50;92.50
47791;DHT22;33547;49.044;1.156;2023-02-01T15:01:12;11.20;93.50
47791;DHT22;33547;49.044;1.156;2023-02-01T15:03:50;11.10;94.00
47791;DHT22;33547;49.044;1.156;2023-02-01T15:06:25;10.90;94.40
47791;DHT22;33547;49.044;1.156;2023-02-01T15:09:02;11.00;93.90
47791;DHT22;33547;49.044;1.156;2023-02-01T15:11:28;10.90;94.90
47791;DHT22;33547;49.044;1.156;2023-02-01T15:13:54;10.60;94.70
47791;DHT22;33547;49.044;1.156;2023-02-01T15:16:23;10.70;94.90
47791;DHT22;33547;49.044;1.156;2023-02-01T15:18:50;10.80;94.90
47791;DHT22;33547;49.044;1.156;2023-02-01T15:21:24;10.90;94.30
47791;DHT22;33547;49.044;1.156;2023-02-01T15:23:50;10.90;93.50
47791;DHT22;33547;49.044;1.156;2023-02-01T15:26:34;10.80;93.80
47791;DHT22;33547;49.044;1.156;2023-02-01T15:29:00;10.70;94.40
47791;DHT22;33547;49.044;1.156;2023-02-01T15:31:41;10.60;93.70
47791;DHT22;33547;49.044;1.156;2023-02-01T15:34:08;10.50;93.90
47791;DHT22;33547;49.044;1.156;2023-02-01T15:36:34;10.40;94.20
47791;DHT22;33547;49.044;1.156;2023-02-01T15:39:22;10.40;94.10
47791;DHT22;33547;49.044;1.156;2023-02-01T15:41:59;10.40;94.10
47791;DHT22;33547;49.044;1.156;2023-02-01T15:44:38;10.30;94.20
47791;DHT22;33547;49.044;1.156;2023-02-01T15:47:23;10.30;94.70
47791;DHT22;33547;49.044;1.156;2023-02-01T15:49:54;10.20;94.60
47791;DHT22;33547;49.044;1.156;2023-02-01T15:52:36;10.20;94.80
47791;DHT22;33547;49.044;1.156;2023-02-01T15:55:08;10.20;94.60
47791;DHT22;33547;49.044;1.156;2023-02-01T15:57:42;10.20;94.80
47791;DHT22;33547;49.044;1.156;2023-02-01T16:00:25;10.10;94.80
47791;DHT22;33547;49.044;1.156;2023-02-01T16:02:55;10.30;95.10
47791;DHT22;33547;49.044;1.156;2023-02-01T16:05:42;10.30;95.00
47791;DHT22;33547;49.044;1.156;2023-02-01T16:08:22;10.30;95.00
47791;DHT22;33547;49.044;1.156;2023-02-01T16:10:53;10.20;95.10
47791;DHT22;33547;49.044;1.156;2023-02-01T16:13:20;10.20;95.60
47791;DHT22;33547;49.044;1.156;2023-02-01T16:15:46;10.10;95.00
47791;DHT22;33547;49.044;1.156;2023-02-01T16:18:13;10.10;95.40
47791;DHT22;33547;49.044;1.156;2023-02-01T16:20:40;10.00;96.10
47791;DHT22;33547;49.044;1.156;2023-02-01T16:23:06;9.90;96.00
47791;DHT22;33547;49.044;1.156;2023-02-01T16:25:33;9.80;96.30
47791;DHT22;33547;49.044;1.156;2023-02-01T16:27:59;9.80;96.40
47791;DHT22;33547;49.044;1.156;2023-02-01T16:30:25;9.80;96.80
47791;DHT22;33547;49.044;1.156;2023-02-01T16:32:54;9.80;97.10
47791;DHT22;33547;49.044;1.156;2023-02-01T16:35:26;9.70;97.40
47791;DHT22;33547;49.044;1.156;2023-02-01T16:37:52;9.60;97.90
47791;DHT22;33547;49.044;1.156;2023-02-01T16:40:19;9.50;98.20
47791;DHT22;33547;49.044;1.156;2023-02-01T16:42:49;9.40;98.30
47791;DHT22;33547;49.044;1.156;2023-02-01T16:45:16;9.40;98.80
47791;DHT22;33547;49.044;1.156;2023-02-01T16:47:48;9.30;98.80
47791;DHT22;33547;49.044;1.156;2023-02-01T16:50:20;9.40;99.10
47791;DHT22;33547;49.044;1.156;2023-02-01T16:52:46;9.30;99.30
47791;DHT22;33547;49.044;1.156;2023-02-01T16:55:13;9.30;99.40
47791;DHT22;33547;49.044;1.156;2023-02-01T16:57:41;9.20;99.70
47791;DHT22;33547;49.044;1.156;2023-02-01T17:00:08;9.20;99.80
47791;DHT22;33547;49.044;1.156;2023-02-01T17:02:34;9.00;99.90
47791;DHT22;33547;49.044;1.156;2023-02-01T17:05:00;9.00;99.90
47791;DHT22;33547;49.044;1.156;2023-02-01T17:07:26;9.00;99.90
47791;DHT22;33547;49.044;1.156;2023-02-01T17:09:52;9.10;99.90
47791;DHT22;33547;49.044;1.156;2023-02-01T17:12:31;9.00;99.90
47791;DHT22;33547;49.044;1.156;2023-02-01T17:14:57;9.10;99.90
47791;DHT22;33547;49.044;1.156;2023-02-01T17:17:28;9.10;99.90
47791;DHT22;33547;49.044;1.156;2023-02-01T17:40:20;9.00;99.90
47791;DHT22;33547;49.044;1.156;2023-02-01T17:56:32;9.00;99.90
47791;DHT22;33547;49.044;1.156;2023-02-01T18:03:06;8.90;99.90
47791;DHT22;33547;49.044;1.156;2023-02-01T18:06:30;8.90;99.90
47791;DHT22;33547;49.044;1.156;2023-02-01T18:58:53;8.90;99.90
47791;DHT22;33547;49.044;1.156;2023-02-01T19:19:44;8.80;99.90
47791;DHT22;33547;49.044;1.156;2023-02-01T20:06:37;8.50;99.90
47791;DHT22;33547;49.044;1.156;2023-02-01T20:45:43;7.90;99.90
47791;DHT22;33547;49.044;1.156;2023-02-01T21:35:20;7.50;99.90
47791;DHT22;33547;49.044;1.156;2023-02-01T21:42:16;7.40;99.90
47791;DHT22;33547;49.044;1.156;2023-02-01T21:48:22;7.40;99.90
47791;DHT22;33547;49.044;1.156;2023-02-01T21:54:52;7.40;99.90
47791;DHT22;33547;49.044;1.156;2023-02-01T22:04:15;7.40;99.90
47791;DHT22;33547;49.044;1.156;2023-02-01T22:07:11;7.30;99.90
47791;DHT22;33547;49.044;1.156;2023-02-01T23:28:43;6.70;99.90
47791;DHT22;33547;49.044;1.156;2023-02-01T23:31:49;6.60;99.90
